ENTO/TRF METAR and TAF weather

Enter ICAO airport designator
Station Type Date Time Source
ENTO METAR 2019/12/16 03:50 UTC NOAA

ENTO 160350Z AUTO 21009KT 9999 NCD 01/01 Q0993


Station Type Date Time Source
ENTO Decoded METAR 2019/12/16 03:50 UTC NOAA

Torp, Norway (ENTO) 59-12N 010-16E 88M
Dec 15, 2019 - 10:50 PM EST / 2019.12.16 0350 UTC
Wind: from the SSW (210 degrees) at 10 MPH (9 KT):0
Visibility: greater than 7 mile(s):0
Temperature: 33 F (1 C)
Windchill: 24 F (-4 C):1
Dew Point: 33 F (1 C)
Relative Humidity: 100%
Pressure (altimeter): 29.32 in. Hg (0993 hPa)
ob: ENTO 160350Z AUTO 21009KT 9999 NCD 01/01 Q0993
cycle: 4

Station Type Date Time Source
ENTO TAF 2019/12/15 18:59 UTC NOAA

TAF ENTO 151700Z 1518/1618 VRB05KT 7000 -RA OVC012
TEMPO 1518/1521 2000 RADZ BR OVC002
BECMG 1520/1522 20010KT FEW002 SCT030
TEMPO 1614/1618 SHRA BKN008 SCT020CB

Example: see airport list